Flight Track Log - Related Links

Times and Time Zones

All times are in EDT time to prevent confusion due to time zone crossing. See the KAP2826 flight status page for this flight to view local times or setup timezone preferences in your user account.

Time Position Orientation Groundspeed Altitude Reporting Facility
EDT Latitude Longitude Course Direction KTS MPH feet Rate Location/Type
Tue 02:34:06 PM 42.3500 -70.9333 114° Southeast 117 135 1,000  Level KA90
Tue 02:35:18 PM 42.3333 -70.8833 114° Southeast 125 144 1,600 500 Climbing KA90
Tue 02:36:06 PM 42.3167 -70.8667 144° Southeast 119 137 2,000 500 Climbing KA90
Tue 02:37:18 PM 42.2833 -70.8167 132° Southeast 128 147 2,600 455 Climbing KA90
Tue 02:38:00 PM 42.2316 -70.8923 109° East  Level Estimated
Tue 02:38:18 PM 42.2500 -70.7833 143° Southeast 132 152 3,000  Level KA90
Tue 02:39:12 PM 42.2167 -70.7667 160° South 138 159 3,400 474 Climbing KA90
Tue 02:40:12 PM 42.1833 -70.7500 160° South 136 157 3,900 500 Climbing KA90
Tue 02:41:12 PM 42.1500 -70.7167 143° Southeast 132 152 4,400 496 Climbing KA90
Tue 02:42:13 PM 42.1167 -70.7000 160° South 132 152 4,900 286 Climbing KA90
Tue 02:43:18 PM 42.0833 -70.6833 160° South 142 163 5,000 45 Climbing KA90
Tue 02:44:26 PM 42.0333 -70.6667 166° South 154 177 5,000  Level KA90
Tue 02:46:00 PM 41.9981 -70.6389 150° Southeast  Level Estimated
Tue 02:53:00 PM 41.8409 -70.5155 150° Southeast  Level Estimated
Tue 02:54:00 PM 41.8184 -70.4979 150° Southeast  Level Estimated
Tue 02:55:00 PM 41.7959 -70.4803 150° Southeast  Level Estimated
Tue 02:56:00 PM 41.7734 -70.4627 150° Southeast  Level Estimated
Tue 02:57:00 PM 41.7509 -70.4452 150° Southeast  Level Estimated
Tue 02:58:00 PM 41.7284 -70.4276 150° Southeast  Level Estimated
Tue 02:59:00 PM 41.7059 -70.4101 150° Southeast  Level Estimated
Tue 03:00:00 PM 41.6834 -70.3926 150° Southeast  Level Estimated
Tue 03:01:00 PM 41.6609 -70.3751 150° Southeast  Level Estimated
Tue 03:02:00 PM 41.6384 -70.3576 150° Southeast  Level Estimated
Tue 03:03:00 PM 41.6159 -70.3401 150° Southeast  Level Estimated
Tue 03:04:00 PM 41.5934 -70.3226 150° Southeast  Level Estimated
Tue 03:05:00 PM 41.5709 -70.3052 150° Southeast  Level Estimated
Tue 03:06:00 PM 41.5484 -70.2878 150° Southeast  Level Estimated
Tue 03:07:00 PM 41.5259 -70.2703 150° Southeast  Level Estimated
Tue 03:08:00 PM 41.5033 -70.2529 150° Southeast  Level Estimated
Tue 03:09:00 PM 41.4808 -70.2355 150° Southeast  Level Estimated
Tue 03:10:00 PM 41.4583 -70.2181 150° Southeast  Level Estimated
Tue 03:11:00 PM 41.4358 -70.2007 150° Southeast  Level Estimated
Tue 03:12:00 PM 41.4132 -70.1834 150° Southeast  Level Estimated

Login

Don't have an account? Register now (free) for customized features, flight alerts, and more!